sensor_id;sensor_type;location;lat;lon;timestamp;temperature;humidity
13754;DHT22;6948;51.216;6.778;2023-04-23T00:01:25;12.10;99.90
13754;DHT22;6948;51.216;6.778;2023-04-23T00:03:54;12.20;99.90
13754;DHT22;6948;51.216;6.778;2023-04-23T00:06:21;12.20;99.90
13754;DHT22;6948;51.216;6.778;2023-04-23T00:08:47;12.10;99.90
13754;DHT22;6948;51.216;6.778;2023-04-23T00:11:16;12.10;99.90
13754;DHT22;6948;51.216;6.778;2023-04-23T00:13:42;12.10;99.90
13754;DHT22;6948;51.216;6.778;2023-04-23T00:16:09;12.20;99.90
13754;DHT22;6948;51.216;6.778;2023-04-23T00:18:35;12.20;99.90
13754;DHT22;6948;51.216;6.778;2023-04-23T00:21:01;12.20;99.90
13754;DHT22;6948;51.216;6.778;2023-04-23T00:23:27;12.20;99.90
13754;DHT22;6948;51.216;6.778;2023-04-23T00:25:53;12.20;99.90
13754;DHT22;6948;51.216;6.778;2023-04-23T00:28:19;12.20;99.90
13754;DHT22;6948;51.216;6.778;2023-04-23T00:30:45;12.30;99.90
13754;DHT22;6948;51.216;6.778;2023-04-23T00:33:10;12.30;99.90
13754;DHT22;6948;51.216;6.778;2023-04-23T00:35:42;12.40;99.90
13754;DHT22;6948;51.216;6.778;2023-04-23T00:38:08;12.40;99.90
13754;DHT22;6948;51.216;6.778;2023-04-23T00:40:34;12.30;99.90
13754;DHT22;6948;51.216;6.778;2023-04-23T00:43:00;12.30;99.90
13754;DHT22;6948;51.216;6.778;2023-04-23T00:45:25;12.30;99.90
13754;DHT22;6948;51.216;6.778;2023-04-23T00:47:52;12.50;99.90
13754;DHT22;6948;51.216;6.778;2023-04-23T00:50:18;12.50;99.90
13754;DHT22;6948;51.216;6.778;2023-04-23T00:52:45;12.40;99.90
13754;DHT22;6948;51.216;6.778;2023-04-23T00:55:11;12.40;99.90
13754;DHT22;6948;51.216;6.778;2023-04-23T00:57:37;12.40;99.90
13754;DHT22;6948;51.216;6.778;2023-04-23T01:00:07;12.30;99.90
13754;DHT22;6948;51.216;6.778;2023-04-23T01:02:34;12.20;99.90
13754;DHT22;6948;51.216;6.778;2023-04-23T01:05:03;12.20;99.90
13754;DHT22;6948;51.216;6.778;2023-04-23T01:07:31;12.20;99.90
13754;DHT22;6948;51.216;6.778;2023-04-23T01:09:58;12.30;99.90
13754;DHT22;6948;51.216;6.778;2023-04-23T01:12:23;12.20;99.90
13754;DHT22;6948;51.216;6.778;2023-04-23T01:14:49;12.30;99.90
13754;DHT22;6948;51.216;6.778;2023-04-23T01:17:15;12.30;99.90
13754;DHT22;6948;51.216;6.778;2023-04-23T01:19:41;12.30;99.90
13754;DHT22;6948;51.216;6.778;2023-04-23T01:22:09;12.30;99.90
13754;DHT22;6948;51.216;6.778;2023-04-23T01:24:35;12.40;99.90
13754;DHT22;6948;51.216;6.778;2023-04-23T01:27:01;12.40;99.90
13754;DHT22;6948;51.216;6.778;2023-04-23T01:29:27;12.30;99.90
13754;DHT22;6948;51.216;6.778;2023-04-23T01:31:54;12.20;99.90
13754;DHT22;6948;51.216;6.778;2023-04-23T01:34:21;12.30;99.90
13754;DHT22;6948;51.216;6.778;2023-04-23T01:36:47;12.30;99.90
13754;DHT22;6948;51.216;6.778;2023-04-23T01:39:13;12.20;99.90
13754;DHT22;6948;51.216;6.778;2023-04-23T01:41:39;12.20;99.90
13754;DHT22;6948;51.216;6.778;2023-04-23T01:44:05;12.10;99.90
13754;DHT22;6948;51.216;6.778;2023-04-23T01:46:31;12.00;99.90
13754;DHT22;6948;51.216;6.778;2023-04-23T01:48:57;12.00;99.90
13754;DHT22;6948;51.216;6.778;2023-04-23T01:51:23;11.90;99.90
13754;DHT22;6948;51.216;6.778;2023-04-23T01:53:50;11.90;99.90
13754;DHT22;6948;51.216;6.778;2023-04-23T01:56:17;11.90;99.90
13754;DHT22;6948;51.216;6.778;2023-04-23T01:58:44;11.90;99.90
13754;DHT22;6948;51.216;6.778;2023-04-23T02:01:09;11.90;99.90
13754;DHT22;6948;51.216;6.778;2023-04-23T02:03:35;11.90;99.90
13754;DHT22;6948;51.216;6.778;2023-04-23T02:06:01;11.80;99.90
13754;DHT22;6948;51.216;6.778;2023-04-23T02:08:30;11.80;99.90
13754;DHT22;6948;51.216;6.778;2023-04-23T02:10:55;11.80;99.90
13754;DHT22;6948;51.216;6.778;2023-04-23T02:13:21;11.70;99.90
13754;DHT22;6948;51.216;6.778;2023-04-23T02:15:47;11.70;99.90
13754;DHT22;6948;51.216;6.778;2023-04-23T02:18:13;11.70;99.90
13754;DHT22;6948;51.216;6.778;2023-04-23T02:20:39;11.80;99.90
13754;DHT22;6948;51.216;6.778;2023-04-23T02:23:07;11.80;99.90
13754;DHT22;6948;51.216;6.778;2023-04-23T02:25:32;11.70;99.90
13754;DHT22;6948;51.216;6.778;2023-04-23T02:27:58;11.60;99.90
13754;DHT22;6948;51.216;6.778;2023-04-23T02:30:26;11.50;99.90
13754;DHT22;6948;51.216;6.778;2023-04-23T02:32:52;11.50;99.90
13754;DHT22;6948;51.216;6.778;2023-04-23T02:35:17;11.40;99.90
13754;DHT22;6948;51.216;6.778;2023-04-23T02:37:43;11.40;99.90
13754;DHT22;6948;51.216;6.778;2023-04-23T02:40:09;11.30;99.90
13754;DHT22;6948;51.216;6.778;2023-04-23T02:42:35;11.30;99.90
13754;DHT22;6948;51.216;6.778;2023-04-23T02:45:00;11.30;99.90
13754;DHT22;6948;51.216;6.778;2023-04-23T02:47:26;11.30;99.90
13754;DHT22;6948;51.216;6.778;2023-04-23T02:49:52;11.30;99.90
13754;DHT22;6948;51.216;6.778;2023-04-23T02:52:18;11.30;99.90
13754;DHT22;6948;51.216;6.778;2023-04-23T02:54:43;11.20;99.90
13754;DHT22;6948;51.216;6.778;2023-04-23T02:57:09;11.10;99.90
13754;DHT22;6948;51.216;6.778;2023-04-23T02:59:37;11.20;99.90
13754;DHT22;6948;51.216;6.778;2023-04-23T03:02:02;11.30;99.90
13754;DHT22;6948;51.216;6.778;2023-04-23T03:04:28;11.30;99.90
13754;DHT22;6948;51.216;6.778;2023-04-23T03:06:54;11.30;99.90
13754;DHT22;6948;51.216;6.778;2023-04-23T03:09:19;11.50;99.90
13754;DHT22;6948;51.216;6.778;2023-04-23T03:11:45;11.50;99.90
13754;DHT22;6948;51.216;6.778;2023-04-23T03:14:11;11.50;99.90
13754;DHT22;6948;51.216;6.778;2023-04-23T03:16:36;11.50;99.90
13754;DHT22;6948;51.216;6.778;2023-04-23T03:19:02;11.40;99.90
13754;DHT22;6948;51.216;6.778;2023-04-23T03:21:28;11.40;99.90
13754;DHT22;6948;51.216;6.778;2023-04-23T03:23:53;11.40;99.90
13754;DHT22;6948;51.216;6.778;2023-04-23T03:26:19;11.50;99.90
13754;DHT22;6948;51.216;6.778;2023-04-23T03:28:45;11.50;99.90
13754;DHT22;6948;51.216;6.778;2023-04-23T03:31:10;11.60;99.90
13754;DHT22;6948;51.216;6.778;2023-04-23T03:33:36;11.70;99.90
13754;DHT22;6948;51.216;6.778;2023-04-23T03:36:02;11.60;99.90
13754;DHT22;6948;51.216;6.778;2023-04-23T03:38:27;11.50;99.90
13754;DHT22;6948;51.216;6.778;2023-04-23T03:40:53;11.40;99.90
13754;DHT22;6948;51.216;6.778;2023-04-23T03:43:19;11.40;99.90
13754;DHT22;6948;51.216;6.778;2023-04-23T03:45:45;11.40;99.90
13754;DHT22;6948;51.216;6.778;2023-04-23T03:48:10;11.40;99.90
13754;DHT22;6948;51.216;6.778;2023-04-23T03:50:36;11.30;99.90
13754;DHT22;6948;51.216;6.778;2023-04-23T03:53:05;11.30;99.90
13754;DHT22;6948;51.216;6.778;2023-04-23T03:55:31;11.20;99.90
13754;DHT22;6948;51.216;6.778;2023-04-23T03:57:57;11.30;99.90
13754;DHT22;6948;51.216;6.778;2023-04-23T04:00:26;11.20;99.90
13754;DHT22;6948;51.216;6.778;2023-04-23T04:02:51;11.30;99.90
13754;DHT22;6948;51.216;6.778;2023-04-23T04:05:17;11.30;99.90
13754;DHT22;6948;51.216;6.778;2023-04-23T04:07:42;11.30;99.90
13754;DHT22;6948;51.216;6.778;2023-04-23T04:10:08;11.30;99.90
13754;DHT22;6948;51.216;6.778;2023-04-23T04:12:34;11.30;99.90
13754;DHT22;6948;51.216;6.778;2023-04-23T04:15:01;11.30;99.90
13754;DHT22;6948;51.216;6.778;2023-04-23T04:17:27;11.30;99.90
13754;DHT22;6948;51.216;6.778;2023-04-23T04:19:53;11.30;99.90
13754;DHT22;6948;51.216;6.778;2023-04-23T04:22:18;11.30;99.90
13754;DHT22;6948;51.216;6.778;2023-04-23T04:24:45;11.30;99.90
13754;DHT22;6948;51.216;6.778;2023-04-23T04:27:12;11.30;99.90
13754;DHT22;6948;51.216;6.778;2023-04-23T04:29:37;11.30;99.90
13754;DHT22;6948;51.216;6.778;2023-04-23T04:32:06;11.40;99.90
13754;DHT22;6948;51.216;6.778;2023-04-23T04:34:32;11.40;99.90
13754;DHT22;6948;51.216;6.778;2023-04-23T04:36:57;11.30;99.90
13754;DHT22;6948;51.216;6.778;2023-04-23T04:39:23;11.40;99.90
13754;DHT22;6948;51.216;6.778;2023-04-23T04:41:49;11.40;99.90
13754;DHT22;6948;51.216;6.778;2023-04-23T04:44:15;11.30;99.90
13754;DHT22;6948;51.216;6.778;2023-04-23T04:46:41;11.30;99.90
13754;DHT22;6948;51.216;6.778;2023-04-23T04:49:08;11.30;99.90
13754;DHT22;6948;51.216;6.778;2023-04-23T04:51:36;11.50;99.90
13754;DHT22;6948;51.216;6.778;2023-04-23T04:54:02;11.50;99.90
13754;DHT22;6948;51.216;6.778;2023-04-23T04:56:28;11.50;99.90
13754;DHT22;6948;51.216;6.778;2023-04-23T04:58:53;11.60;99.90
13754;DHT22;6948;51.216;6.778;2023-04-23T05:01:20;11.60;99.90
13754;DHT22;6948;51.216;6.778;2023-04-23T05:03:47;11.50;99.90
13754;DHT22;6948;51.216;6.778;2023-04-23T05:06:13;11.60;99.90
13754;DHT22;6948;51.216;6.778;2023-04-23T05:08:39;11.60;99.90
13754;DHT22;6948;51.216;6.778;2023-04-23T05:11:04;11.60;99.90
13754;DHT22;6948;51.216;6.778;2023-04-23T05:13:30;11.60;99.90
13754;DHT22;6948;51.216;6.778;2023-04-23T05:15:56;11.60;99.90
13754;DHT22;6948;51.216;6.778;2023-04-23T05:18:21;11.60;99.90
13754;DHT22;6948;51.216;6.778;2023-04-23T05:20:47;11.70;99.90
13754;DHT22;6948;51.216;6.778;2023-04-23T05:23:13;11.60;99.90
13754;DHT22;6948;51.216;6.778;2023-04-23T05:25:38;11.60;99.90
13754;DHT22;6948;51.216;6.778;2023-04-23T05:28:04;11.60;99.90
13754;DHT22;6948;51.216;6.778;2023-04-23T05:30:30;11.60;99.90
13754;DHT22;6948;51.216;6.778;2023-04-23T05:32:55;11.80;99.90
13754;DHT22;6948;51.216;6.778;2023-04-23T05:35:21;11.80;99.90
13754;DHT22;6948;51.216;6.778;2023-04-23T05:37:46;11.90;99.90
13754;DHT22;6948;51.216;6.778;2023-04-23T05:40:12;11.90;99.90
13754;DHT22;6948;51.216;6.778;2023-04-23T05:42:38;11.90;99.90
13754;DHT22;6948;51.216;6.778;2023-04-23T05:45:04;12.10;99.90
13754;DHT22;6948;51.216;6.778;2023-04-23T05:47:30;12.10;99.90
13754;DHT22;6948;51.216;6.778;2023-04-23T05:49:56;12.00;99.90
13754;DHT22;6948;51.216;6.778;2023-04-23T05:52:22;12.00;99.90
13754;DHT22;6948;51.216;6.778;2023-04-23T05:54:49;12.00;99.90
13754;DHT22;6948;51.216;6.778;2023-04-23T05:57:15;12.00;99.90
13754;DHT22;6948;51.216;6.778;2023-04-23T05:59:41;12.00;99.90
13754;DHT22;6948;51.216;6.778;2023-04-23T06:02:08;12.10;99.90
13754;DHT22;6948;51.216;6.778;2023-04-23T06:04:35;12.10;99.90
13754;DHT22;6948;51.216;6.778;2023-04-23T06:07:01;12.10;99.90
13754;DHT22;6948;51.216;6.778;2023-04-23T06:09:27;12.10;99.90
13754;DHT22;6948;51.216;6.778;2023-04-23T06:11:52;12.10;99.90
13754;DHT22;6948;51.216;6.778;2023-04-23T06:14:19;12.10;99.90
13754;DHT22;6948;51.216;6.778;2023-04-23T06:16:45;12.30;99.90
13754;DHT22;6948;51.216;6.778;2023-04-23T06:19:10;12.40;99.90
13754;DHT22;6948;51.216;6.778;2023-04-23T06:21:36;12.50;99.90
13754;DHT22;6948;51.216;6.778;2023-04-23T06:24:02;12.60;99.90
13754;DHT22;6948;51.216;6.778;2023-04-23T06:26:28;12.50;99.90
13754;DHT22;6948;51.216;6.778;2023-04-23T06:28:53;12.60;99.90
13754;DHT22;6948;51.216;6.778;2023-04-23T06:31:19;12.70;99.90
13754;DHT22;6948;51.216;6.778;2023-04-23T06:33:45;12.70;99.90
13754;DHT22;6948;51.216;6.778;2023-04-23T06:36:10;12.70;99.90
13754;DHT22;6948;51.216;6.778;2023-04-23T06:38:36;12.70;99.90
13754;DHT22;6948;51.216;6.778;2023-04-23T06:41:03;12.80;99.90
13754;DHT22;6948;51.216;6.778;2023-04-23T06:43:29;12.90;99.90
13754;DHT22;6948;51.216;6.778;2023-04-23T06:45:55;13.00;99.90
13754;DHT22;6948;51.216;6.778;2023-04-23T06:48:21;13.10;99.90
13754;DHT22;6948;51.216;6.778;2023-04-23T06:50:47;13.20;99.90
13754;DHT22;6948;51.216;6.778;2023-04-23T06:53:13;13.30;99.90
13754;DHT22;6948;51.216;6.778;2023-04-23T06:55:39;13.40;99.90
13754;DHT22;6948;51.216;6.778;2023-04-23T06:58:05;13.50;99.90
13754;DHT22;6948;51.216;6.778;2023-04-23T07:00:32;13.50;99.90
13754;DHT22;6948;51.216;6.778;2023-04-23T07:02:57;13.60;99.90
13754;DHT22;6948;51.216;6.778;2023-04-23T07:05:23;13.60;99.90
13754;DHT22;6948;51.216;6.778;2023-04-23T07:07:49;13.60;99.90
13754;DHT22;6948;51.216;6.778;2023-04-23T07:10:14;13.70;99.90
13754;DHT22;6948;51.216;6.778;2023-04-23T07:12:40;13.70;99.90
13754;DHT22;6948;51.216;6.778;2023-04-23T07:15:06;13.70;99.90
13754;DHT22;6948;51.216;6.778;2023-04-23T07:17:33;13.80;99.90
13754;DHT22;6948;51.216;6.778;2023-04-23T07:19:59;13.90;99.90
13754;DHT22;6948;51.216;6.778;2023-04-23T07:22:25;14.00;99.90
13754;DHT22;6948;51.216;6.778;2023-04-23T07:24:51;14.10;99.90
13754;DHT22;6948;51.216;6.778;2023-04-23T07:27:17;14.10;99.90
13754;DHT22;6948;51.216;6.778;2023-04-23T07:29:42;14.10;99.90
13754;DHT22;6948;51.216;6.778;2023-04-23T07:32:08;14.20;99.90
13754;DHT22;6948;51.216;6.778;2023-04-23T07:34:34;14.30;99.90
13754;DHT22;6948;51.216;6.778;2023-04-23T07:37:01;14.30;99.90
13754;DHT22;6948;51.216;6.778;2023-04-23T07:39:27;14.30;99.90
13754;DHT22;6948;51.216;6.778;2023-04-23T07:41:53;14.40;99.90
13754;DHT22;6948;51.216;6.778;2023-04-23T07:44:18;14.50;99.90
13754;DHT22;6948;51.216;6.778;2023-04-23T07:46:44;14.60;99.90
13754;DHT22;6948;51.216;6.778;2023-04-23T07:49:10;14.60;99.90
13754;DHT22;6948;51.216;6.778;2023-04-23T07:51:35;14.60;99.90
13754;DHT22;6948;51.216;6.778;2023-04-23T07:54:01;14.60;99.90
13754;DHT22;6948;51.216;6.778;2023-04-23T07:56:27;14.70;99.90
13754;DHT22;6948;51.216;6.778;2023-04-23T07:58:52;14.80;99.90
13754;DHT22;6948;51.216;6.778;2023-04-23T08:01:18;14.90;99.90
13754;DHT22;6948;51.216;6.778;2023-04-23T08:03:44;15.10;99.90
13754;DHT22;6948;51.216;6.778;2023-04-23T08:06:10;15.10;99.90
13754;DHT22;6948;51.216;6.778;2023-04-23T08:08:37;15.20;98.00
13754;DHT22;6948;51.216;6.778;2023-04-23T08:11:04;15.40;94.30
13754;DHT22;6948;51.216;6.778;2023-04-23T08:13:30;15.50;88.40
13754;DHT22;6948;51.216;6.778;2023-04-23T08:15:56;15.40;88.40
13754;DHT22;6948;51.216;6.778;2023-04-23T08:18:22;15.50;78.00
13754;DHT22;6948;51.216;6.778;2023-04-23T08:20:48;15.60;65.00
13754;DHT22;6948;51.216;6.778;2023-04-23T08:23:14;15.70;51.80
13754;DHT22;6948;51.216;6.778;2023-04-23T08:25:39;15.70;49.10
13754;DHT22;6948;51.216;6.778;2023-04-23T08:28:05;15.70;63.80
13754;DHT22;6948;51.216;6.778;2023-04-23T08:30:31;15.60;68.00
13754;DHT22;6948;51.216;6.778;2023-04-23T08:32:57;15.60;76.10
13754;DHT22;6948;51.216;6.778;2023-04-23T08:35:23;15.60;76.20
13754;DHT22;6948;51.216;6.778;2023-04-23T08:37:49;15.60;81.70
13754;DHT22;6948;51.216;6.778;2023-04-23T08:40:15;15.70;70.50
13754;DHT22;6948;51.216;6.778;2023-04-23T08:45:20;15.70;74.60
13754;DHT22;6948;51.216;6.778;2023-04-23T08:47:46;15.90;59.10
13754;DHT22;6948;51.216;6.778;2023-04-23T08:50:16;16.10;42.00
13754;DHT22;6948;51.216;6.778;2023-04-23T08:52:46;16.10;17.00
13754;DHT22;6948;51.216;6.778;2023-04-23T08:55:14;16.10;8.00
13754;DHT22;6948;51.216;6.778;2023-04-23T08:57:41;16.10;1.50
13754;DHT22;6948;51.216;6.778;2023-04-23T09:00:08;16.20;1.00
13754;DHT22;6948;51.216;6.778;2023-04-23T09:02:36;16.30;1.00
13754;DHT22;6948;51.216;6.778;2023-04-23T09:05:03;16.40;1.00
13754;DHT22;6948;51.216;6.778;2023-04-23T09:07:29;16.60;1.00
13754;DHT22;6948;51.216;6.778;2023-04-23T09:09:55;16.80;1.00
13754;DHT22;6948;51.216;6.778;2023-04-23T09:12:21;16.90;1.00
13754;DHT22;6948;51.216;6.778;2023-04-23T09:14:48;16.90;1.00
13754;DHT22;6948;51.216;6.778;2023-04-23T09:17:14;16.90;1.00
13754;DHT22;6948;51.216;6.778;2023-04-23T09:19:40;17.00;1.00
13754;DHT22;6948;51.216;6.778;2023-04-23T09:22:07;16.90;1.00
13754;DHT22;6948;51.216;6.778;2023-04-23T09:24:33;16.90;1.00
13754;DHT22;6948;51.216;6.778;2023-04-23T09:26:59;16.80;1.00
13754;DHT22;6948;51.216;6.778;2023-04-23T09:29:25;16.80;1.00
13754;DHT22;6948;51.216;6.778;2023-04-23T09:31:54;16.80;1.00
13754;DHT22;6948;51.216;6.778;2023-04-23T09:34:22;16.80;1.00
13754;DHT22;6948;51.216;6.778;2023-04-23T09:36:49;16.80;1.00
13754;DHT22;6948;51.216;6.778;2023-04-23T09:39:18;16.80;1.00
13754;DHT22;6948;51.216;6.778;2023-04-23T09:41:44;16.90;1.00
13754;DHT22;6948;51.216;6.778;2023-04-23T09:44:11;17.10;1.00
13754;DHT22;6948;51.216;6.778;2023-04-23T09:46:41;17.30;1.00
13754;DHT22;6948;51.216;6.778;2023-04-23T09:49:08;17.50;1.00
13754;DHT22;6948;51.216;6.778;2023-04-23T09:51:39;17.60;1.00
13754;DHT22;6948;51.216;6.778;2023-04-23T09:54:14;17.80;1.00
13754;DHT22;6948;51.216;6.778;2023-04-23T09:56:41;17.80;1.00
13754;DHT22;6948;51.216;6.778;2023-04-23T09:59:26;17.90;1.00
13754;DHT22;6948;51.216;6.778;2023-04-23T10:01:53;17.80;1.00
13754;DHT22;6948;51.216;6.778;2023-04-23T10:04:23;17.70;1.00
13754;DHT22;6948;51.216;6.778;2023-04-23T10:06:54;17.60;1.00
13754;DHT22;6948;51.216;6.778;2023-04-23T10:09:21;17.60;1.00
13754;DHT22;6948;51.216;6.778;2023-04-23T10:11:54;17.50;1.00
13754;DHT22;6948;51.216;6.778;2023-04-23T10:14:22;17.40;1.00
13754;DHT22;6948;51.216;6.778;2023-04-23T10:16:51;17.50;1.00
13754;DHT22;6948;51.216;6.778;2023-04-23T10:19:23;17.40;1.00
13754;DHT22;6948;51.216;6.778;2023-04-23T10:21:52;17.40;1.00
13754;DHT22;6948;51.216;6.778;2023-04-23T10:24:23;17.30;1.00
13754;DHT22;6948;51.216;6.778;2023-04-23T10:26:51;17.20;1.00
13754;DHT22;6948;51.216;6.778;2023-04-23T10:29:20;17.10;1.00
13754;DHT22;6948;51.216;6.778;2023-04-23T10:31:48;16.90;1.00
13754;DHT22;6948;51.216;6.778;2023-04-23T10:34:15;16.70;21.40
13754;DHT22;6948;51.216;6.778;2023-04-23T10:36:41;16.50;46.40
13754;DHT22;6948;51.216;6.778;2023-04-23T10:39:07;16.30;56.80
13754;DHT22;6948;51.216;6.778;2023-04-23T10:41:37;16.20;79.90
13754;DHT22;6948;51.216;6.778;2023-04-23T10:44:04;16.20;91.00
13754;DHT22;6948;51.216;6.778;2023-04-23T10:46:32;16.20;83.50
13754;DHT22;6948;51.216;6.778;2023-04-23T10:49:07;16.30;83.10
13754;DHT22;6948;51.216;6.778;2023-04-23T10:51:35;16.40;80.40
13754;DHT22;6948;51.216;6.778;2023-04-23T10:54:03;16.40;50.00
13754;DHT22;6948;51.216;6.778;2023-04-23T10:56:29;16.50;43.10
13754;DHT22;6948;51.216;6.778;2023-04-23T10:58:54;16.50;42.60
13754;DHT22;6948;51.216;6.778;2023-04-23T11:01:24;16.40;52.70
13754;DHT22;6948;51.216;6.778;2023-04-23T11:03:51;16.30;47.70
13754;DHT22;6948;51.216;6.778;2023-04-23T11:06:49;16.20;48.10
13754;DHT22;6948;51.216;6.778;2023-04-23T11:12:08;16.20;46.50
13754;DHT22;6948;51.216;6.778;2023-04-23T11:17:12;16.40;44.40
13754;DHT22;6948;51.216;6.778;2023-04-23T11:19:39;16.80;55.80
13754;DHT22;6948;51.216;6.778;2023-04-23T11:24:49;17.10;9.40
13754;DHT22;6948;51.216;6.778;2023-04-23T11:27:16;17.30;1.00
13754;DHT22;6948;51.216;6.778;2023-04-23T11:29:44;17.30;1.00
13754;DHT22;6948;51.216;6.778;2023-04-23T11:32:12;17.40;1.00
13754;DHT22;6948;51.216;6.778;2023-04-23T11:34:40;17.50;1.00
13754;DHT22;6948;51.216;6.778;2023-04-23T11:37:09;17.50;1.00
13754;DHT22;6948;51.216;6.778;2023-04-23T11:39:35;17.40;1.00
13754;DHT22;6948;51.216;6.778;2023-04-23T11:42:01;17.40;1.00
13754;DHT22;6948;51.216;6.778;2023-04-23T11:44:28;17.50;1.00
13754;DHT22;6948;51.216;6.778;2023-04-23T11:46:53;17.50;1.00
13754;DHT22;6948;51.216;6.778;2023-04-23T11:49:19;17.60;1.00
13754;DHT22;6948;51.216;6.778;2023-04-23T11:51:47;17.80;1.00
13754;DHT22;6948;51.216;6.778;2023-04-23T11:54:13;17.80;1.00
13754;DHT22;6948;51.216;6.778;2023-04-23T11:56:39;17.80;1.00
13754;DHT22;6948;51.216;6.778;2023-04-23T11:59:05;17.80;1.00
13754;DHT22;6948;51.216;6.778;2023-04-23T12:01:53;17.90;1.00
13754;DHT22;6948;51.216;6.778;2023-04-23T12:06:58;17.80;1.00
13754;DHT22;6948;51.216;6.778;2023-04-23T12:09:26;17.90;1.00
13754;DHT22;6948;51.216;6.778;2023-04-23T12:11:52;17.90;1.00
13754;DHT22;6948;51.216;6.778;2023-04-23T12:14:27;18.00;1.00
13754;DHT22;6948;51.216;6.778;2023-04-23T12:17:16;18.00;1.00
13754;DHT22;6948;51.216;6.778;2023-04-23T12:19:52;18.10;1.00
13754;DHT22;6948;51.216;6.778;2023-04-23T12:22:26;18.00;99.90
13754;DHT22;6948;51.216;6.778;2023-04-23T12:24:52;18.10;99.90
13754;DHT22;6948;51.216;6.778;2023-04-23T12:27:20;18.30;99.90
13754;DHT22;6948;51.216;6.778;2023-04-23T12:29:58;18.30;99.90
13754;DHT22;6948;51.216;6.778;2023-04-23T12:32:24;18.40;1.00
13754;DHT22;6948;51.216;6.778;2023-04-23T12:34:51;18.60;99.90
13754;DHT22;6948;51.216;6.778;2023-04-23T12:37:18;18.90;99.90
13754;DHT22;6948;51.216;6.778;2023-04-23T12:39:54;19.00;99.90
13754;DHT22;6948;51.216;6.778;2023-04-23T12:42:24;19.20;1.00
13754;DHT22;6948;51.216;6.778;2023-04-23T12:44:50;19.30;99.90
13754;DHT22;6948;51.216;6.778;2023-04-23T12:47:23;19.20;99.90
13754;DHT22;6948;51.216;6.778;2023-04-23T12:49:49;19.40;99.90
13754;DHT22;6948;51.216;6.778;2023-04-23T12:52:20;19.20;99.90
13754;DHT22;6948;51.216;6.778;2023-04-23T12:54:45;19.20;53.80
13754;DHT22;6948;51.216;6.778;2023-04-23T12:57:12;19.20;99.90
13754;DHT22;6948;51.216;6.778;2023-04-23T12:59:38;19.20;99.90
13754;DHT22;6948;51.216;6.778;2023-04-23T13:02:04;19.10;1.00
13754;DHT22;6948;51.216;6.778;2023-04-23T13:04:32;19.00;1.00
13754;DHT22;6948;51.216;6.778;2023-04-23T13:06:59;18.90;1.00
13754;DHT22;6948;51.216;6.778;2023-04-23T13:09:25;19.00;99.90
13754;DHT22;6948;51.216;6.778;2023-04-23T13:11:52;19.00;1.00
13754;DHT22;6948;51.216;6.778;2023-04-23T13:14:18;18.80;1.00
13754;DHT22;6948;51.216;6.778;2023-04-23T13:16:45;18.80;99.90
13754;DHT22;6948;51.216;6.778;2023-04-23T13:19:10;18.80;1.00
13754;DHT22;6948;51.216;6.778;2023-04-23T13:21:38;18.80;29.90
13754;DHT22;6948;51.216;6.778;2023-04-23T13:24:03;18.80;1.00
13754;DHT22;6948;51.216;6.778;2023-04-23T13:26:29;18.80;1.00
13754;DHT22;6948;51.216;6.778;2023-04-23T13:28:57;18.80;1.00
13754;DHT22;6948;51.216;6.778;2023-04-23T13:31:23;18.80;1.00
13754;DHT22;6948;51.216;6.778;2023-04-23T13:33:49;18.90;99.90
13754;DHT22;6948;51.216;6.778;2023-04-23T13:36:14;19.00;99.90
13754;DHT22;6948;51.216;6.778;2023-04-23T13:38:40;19.00;1.00
13754;DHT22;6948;51.216;6.778;2023-04-23T13:41:06;19.00;99.90
13754;DHT22;6948;51.216;6.778;2023-04-23T13:43:32;18.90;1.00
13754;DHT22;6948;51.216;6.778;2023-04-23T13:45:57;19.00;1.00
13754;DHT22;6948;51.216;6.778;2023-04-23T13:48:25;19.00;98.60
13754;DHT22;6948;51.216;6.778;2023-04-23T13:50:55;19.00;99.90
13754;DHT22;6948;51.216;6.778;2023-04-23T13:53:21;19.00;99.90
13754;DHT22;6948;51.216;6.778;2023-04-23T13:55:47;19.00;1.00
13754;DHT22;6948;51.216;6.778;2023-04-23T13:58:12;18.90;99.90
13754;DHT22;6948;51.216;6.778;2023-04-23T14:00:38;18.80;99.90
13754;DHT22;6948;51.216;6.778;2023-04-23T14:03:04;18.80;99.90
13754;DHT22;6948;51.216;6.778;2023-04-23T14:05:30;18.80;1.00
13754;DHT22;6948;51.216;6.778;2023-04-23T14:07:56;18.80;1.00
13754;DHT22;6948;51.216;6.778;2023-04-23T14:10:21;18.70;99.90
13754;DHT22;6948;51.216;6.778;2023-04-23T14:12:48;18.70;1.00
13754;DHT22;6948;51.216;6.778;2023-04-23T14:15:13;18.70;99.90
13754;DHT22;6948;51.216;6.778;2023-04-23T14:17:39;18.70;99.90
13754;DHT22;6948;51.216;6.778;2023-04-23T14:20:08;18.60;1.00
13754;DHT22;6948;51.216;6.778;2023-04-23T14:22:34;18.70;1.00
13754;DHT22;6948;51.216;6.778;2023-04-23T14:25:03;18.60;1.00
13754;DHT22;6948;51.216;6.778;2023-04-23T14:27:39;18.50;1.00
13754;DHT22;6948;51.216;6.778;2023-04-23T14:30:14;18.50;99.90
13754;DHT22;6948;51.216;6.778;2023-04-23T14:32:40;18.40;19.60
13754;DHT22;6948;51.216;6.778;2023-04-23T14:35:07;18.40;1.00
13754;DHT22;6948;51.216;6.778;2023-04-23T14:37:36;18.50;16.90
13754;DHT22;6948;51.216;6.778;2023-04-23T14:40:02;18.60;16.20
13754;DHT22;6948;51.216;6.778;2023-04-23T14:42:27;18.60;1.00
13754;DHT22;6948;51.216;6.778;2023-04-23T14:44:53;18.50;99.90
13754;DHT22;6948;51.216;6.778;2023-04-23T14:47:23;18.50;99.90
13754;DHT22;6948;51.216;6.778;2023-04-23T14:49:49;18.40;1.00
13754;DHT22;6948;51.216;6.778;2023-04-23T14:52:15;18.40;1.00
13754;DHT22;6948;51.216;6.778;2023-04-23T14:54:41;18.50;1.00
13754;DHT22;6948;51.216;6.778;2023-04-23T14:57:07;18.40;99.90
13754;DHT22;6948;51.216;6.778;2023-04-23T14:59:32;18.40;1.00
13754;DHT22;6948;51.216;6.778;2023-04-23T15:01:59;18.30;1.00
13754;DHT22;6948;51.216;6.778;2023-04-23T15:04:25;18.30;1.00
13754;DHT22;6948;51.216;6.778;2023-04-23T15:06:51;18.10;1.00
13754;DHT22;6948;51.216;6.778;2023-04-23T15:09:16;18.10;99.90
13754;DHT22;6948;51.216;6.778;2023-04-23T15:11:42;18.00;99.90
13754;DHT22;6948;51.216;6.778;2023-04-23T15:14:23;17.90;99.90
13754;DHT22;6948;51.216;6.778;2023-04-23T15:16:49;17.80;99.90
13754;DHT22;6948;51.216;6.778;2023-04-23T15:19:16;17.70;99.90
13754;DHT22;6948;51.216;6.778;2023-04-23T15:21:42;17.60;99.90
13754;DHT22;6948;51.216;6.778;2023-04-23T15:24:08;17.30;99.90
13754;DHT22;6948;51.216;6.778;2023-04-23T15:26:35;17.00;99.90
13754;DHT22;6948;51.216;6.778;2023-04-23T15:29:00;17.00;99.90
13754;DHT22;6948;51.216;6.778;2023-04-23T15:31:27;16.80;99.90
13754;DHT22;6948;51.216;6.778;2023-04-23T15:33:53;16.70;99.90
13754;DHT22;6948;51.216;6.778;2023-04-23T15:36:18;16.60;99.90
13754;DHT22;6948;51.216;6.778;2023-04-23T15:38:44;16.40;99.90
13754;DHT22;6948;51.216;6.778;2023-04-23T15:41:10;16.20;99.90
13754;DHT22;6948;51.216;6.778;2023-04-23T15:43:37;16.10;99.90
13754;DHT22;6948;51.216;6.778;2023-04-23T15:46:02;16.00;99.90
13754;DHT22;6948;51.216;6.778;2023-04-23T15:48:28;15.90;99.90
13754;DHT22;6948;51.216;6.778;2023-04-23T15:50:54;15.80;99.90
13754;DHT22;6948;51.216;6.778;2023-04-23T15:53:19;15.70;99.90
13754;DHT22;6948;51.216;6.778;2023-04-23T15:55:48;15.60;99.90
13754;DHT22;6948;51.216;6.778;2023-04-23T15:58:14;15.60;99.90
13754;DHT22;6948;51.216;6.778;2023-04-23T16:00:41;15.50;99.90